Decoded Metar for PAAQ (PALMER in AK, USA) (IATA:PAQ) | Meteo·Mobile Aviation Weather
aviador You're here:

PAAQ Decoded Metar

PALMER in AK, USA
Report Time2018-11-21 16:53:00
UTC Time2018-11-21 17:54:01
Flight Rules vfr VFR
WindCalm
Visibility9999 m
Phenomena:N/A
Clouds:Overcast 075 Hf
Expected CloudBase > 400 ft AGL from Temp-Dew spread
Ceiling7,500 ft
Temp-4°C (ISA -19)
Dew Point-5°C (93% RH)
AAT-6.6°C
QNH992 hPa
Density Alt-1,260 ft
Elevation240 ft
Report Wrong Elevation
Raw Report
PAAQ 211653Z 00000KT 10SM OVC075 M04/M05 A2930 RMK AO2 SLP926
T10391050=

Extra information for PAAQ:More info

Metar Taf Metar & Taf Last 4 Metars F.Rules Stats Wind Profile Meteogram Temp Stats Airport Information Weather charts Add Link Nearby VenuesMetar ALERT Operation Metar Decoded Social comments

AIRNAV info for PAAQ